sensor_id;sensor_type;location;lat;lon;timestamp;pressure;altitude;pressure_sealevel;temperature;humidity
77086;BME280;66014;53.134;18.006;2023-02-15T00:00:10;102870.98;;;2.29;76.47
77086;BME280;66014;53.134;18.006;2023-02-15T00:03:00;102871.52;;;2.29;76.49
77086;BME280;66014;53.134;18.006;2023-02-15T00:05:27;102868.40;;;2.28;76.47
77086;BME280;66014;53.134;18.006;2023-02-15T00:07:55;102868.18;;;2.29;76.46
77086;BME280;66014;53.134;18.006;2023-02-15T00:10:22;102873.52;;;2.31;76.48
77086;BME280;66014;53.134;18.006;2023-02-15T00:12:49;102871.92;;;2.31;76.39
77086;BME280;66014;53.134;18.006;2023-02-15T00:15:16;102871.89;;;2.32;76.47
77086;BME280;66014;53.134;18.006;2023-02-15T00:17:43;102871.35;;;2.33;76.23
77086;BME280;66014;53.134;18.006;2023-02-15T00:20:09;102869.42;;;2.33;76.27
77086;BME280;66014;53.134;18.006;2023-02-15T00:22:37;102866.63;;;2.32;76.52
77086;BME280;66014;53.134;18.006;2023-02-15T00:25:04;102866.44;;;2.33;76.34
77086;BME280;66014;53.134;18.006;2023-02-15T00:27:33;102865.95;;;2.36;76.32
77086;BME280;66014;53.134;18.006;2023-02-15T00:30:00;102864.16;;;2.36;76.26
77086;BME280;66014;53.134;18.006;2023-02-15T00:32:27;102861.17;;;2.36;76.30
77086;BME280;66014;53.134;18.006;2023-02-15T00:34:54;102860.30;;;2.36;76.27
77086;BME280;66014;53.134;18.006;2023-02-15T00:37:20;102856.81;;;2.36;76.26
77086;BME280;66014;53.134;18.006;2023-02-15T00:39:46;102858.45;;;2.35;76.50
77086;BME280;66014;53.134;18.006;2023-02-15T00:42:13;102856.52;;;2.35;76.44
77086;BME280;66014;53.134;18.006;2023-02-15T00:44:39;102855.19;;;2.37;76.35
77086;BME280;66014;53.134;18.006;2023-02-15T00:47:06;102854.23;;;2.39;76.36
77086;BME280;66014;53.134;18.006;2023-02-15T00:49:32;102855.56;;;2.40;76.18
77086;BME280;66014;53.134;18.006;2023-02-15T00:51:59;102855.00;;;2.41;76.53
77086;BME280;66014;53.134;18.006;2023-02-15T00:54:26;102852.26;;;2.43;76.38
77086;BME280;66014;53.134;18.006;2023-02-15T00:56:52;102853.14;;;2.43;76.46
77086;BME280;66014;53.134;18.006;2023-02-15T00:59:19;102851.55;;;2.40;76.32
77086;BME280;66014;53.134;18.006;2023-02-15T01:01:45;102846.66;;;2.39;76.49
77086;BME280;66014;53.134;18.006;2023-02-15T01:04:12;102843.77;;;2.38;76.52
77086;BME280;66014;53.134;18.006;2023-02-15T01:06:38;102846.98;;;2.40;76.72
77086;BME280;66014;53.134;18.006;2023-02-15T01:09:04;102847.27;;;2.41;76.65
77086;BME280;66014;53.134;18.006;2023-02-15T01:11:31;102844.84;;;2.41;76.80
77086;BME280;66014;53.134;18.006;2023-02-15T01:13:58;102842.26;;;2.36;76.74
77086;BME280;66014;53.134;18.006;2023-02-15T01:16:35;102843.98;;;2.33;76.54
77086;BME280;66014;53.134;18.006;2023-02-15T01:19:02;102846.08;;;2.34;76.85
77086;BME280;66014;53.134;18.006;2023-02-15T01:21:32;102847.27;;;2.38;76.67
77086;BME280;66014;53.134;18.006;2023-02-15T01:24:01;102839.52;;;2.43;76.72
77086;BME280;66014;53.134;18.006;2023-02-15T01:26:28;102833.45;;;2.48;76.85
77086;BME280;66014;53.134;18.006;2023-02-15T01:29:03;102831.96;;;2.53;76.70
77086;BME280;66014;53.134;18.006;2023-02-15T01:31:30;102824.61;;;2.57;76.65
77086;BME280;66014;53.134;18.006;2023-02-15T01:33:56;102818.68;;;2.60;76.61
77086;BME280;66014;53.134;18.006;2023-02-15T01:36:23;102818.09;;;2.65;76.66
77086;BME280;66014;53.134;18.006;2023-02-15T01:38:49;102813.11;;;2.70;76.57
77086;BME280;66014;53.134;18.006;2023-02-15T01:41:19;102810.56;;;2.75;76.44
77086;BME280;66014;53.134;18.006;2023-02-15T01:44:00;102806.91;;;2.78;76.40
77086;BME280;66014;53.134;18.006;2023-02-15T01:46:32;102803.92;;;2.82;76.36
77086;BME280;66014;53.134;18.006;2023-02-15T01:49:23;102803.09;;;2.84;76.37
77086;BME280;66014;53.134;18.006;2023-02-15T01:51:50;102800.42;;;2.85;76.13
77086;BME280;66014;53.134;18.006;2023-02-15T01:54:25;102802.73;;;2.84;76.26
77086;BME280;66014;53.134;18.006;2023-02-15T01:56:58;102799.77;;;2.84;76.37
77086;BME280;66014;53.134;18.006;2023-02-15T01:59:26;102798.53;;;2.85;75.97
77086;BME280;66014;53.134;18.006;2023-02-15T02:01:58;102795.79;;;2.87;76.23
77086;BME280;66014;53.134;18.006;2023-02-15T02:04:50;102797.70;;;2.87;75.89
77086;BME280;66014;53.134;18.006;2023-02-15T02:07:33;102794.20;;;2.87;76.22
77086;BME280;66014;53.134;18.006;2023-02-15T02:10:16;102792.67;;;2.86;76.15
77086;BME280;66014;53.134;18.006;2023-02-15T02:12:49;102788.02;;;2.84;76.01
77086;BME280;66014;53.134;18.006;2023-02-15T02:15:27;102785.58;;;2.80;76.11
77086;BME280;66014;53.134;18.006;2023-02-15T02:25:03;102786.48;;;2.77;76.16
77086;BME280;66014;53.134;18.006;2023-02-15T02:27:49;102784.27;;;2.75;76.21
77086;BME280;66014;53.134;18.006;2023-02-15T02:39:44;102784.89;;;2.67;76.01
77086;BME280;66014;53.134;18.006;2023-02-15T02:42:33;102782.67;;;2.65;76.13
77086;BME280;66014;53.134;18.006;2023-02-15T02:45:09;102785.95;;;2.63;76.23
77086;BME280;66014;53.134;18.006;2023-02-15T02:47:50;102783.25;;;2.61;76.33
77086;BME280;66014;53.134;18.006;2023-02-15T02:50:26;102781.02;;;2.56;76.43
77086;BME280;66014;53.134;18.006;2023-02-15T02:52:55;102779.70;;;2.47;76.41
77086;BME280;66014;53.134;18.006;2023-02-15T02:55:27;102780.89;;;2.41;76.54
77086;BME280;66014;53.134;18.006;2023-02-15T02:58:07;102782.11;;;2.34;76.82
77086;BME280;66014;53.134;18.006;2023-02-15T03:00:41;102780.73;;;2.26;76.93
77086;BME280;66014;53.134;18.006;2023-02-15T03:03:18;102778.57;;;2.20;77.05
77086;BME280;66014;53.134;18.006;2023-02-15T03:05:48;102774.89;;;2.13;77.14
77086;BME280;66014;53.134;18.006;2023-02-15T03:08:18;102774.23;;;2.12;77.24
77086;BME280;66014;53.134;18.006;2023-02-15T03:10:51;102772.27;;;2.10;77.19
77086;BME280;66014;53.134;18.006;2023-02-15T03:13:20;102770.71;;;2.05;77.33
77086;BME280;66014;53.134;18.006;2023-02-15T03:15:48;102765.80;;;2.02;77.14
77086;BME280;66014;53.134;18.006;2023-02-15T03:18:43;102763.64;;;1.99;77.02
77086;BME280;66014;53.134;18.006;2023-02-15T03:21:21;102764.60;;;1.97;77.30
77086;BME280;66014;53.134;18.006;2023-02-15T03:23:58;102762.25;;;1.95;77.22
77086;BME280;66014;53.134;18.006;2023-02-15T03:26:27;102762.77;;;1.91;77.44
77086;BME280;66014;53.134;18.006;2023-02-15T03:28:56;102767.31;;;1.88;77.47
77086;BME280;66014;53.134;18.006;2023-02-15T03:31:26;102762.27;;;1.84;77.18
77086;BME280;66014;53.134;18.006;2023-02-15T03:33:59;102760.36;;;1.83;77.39
77086;BME280;66014;53.134;18.006;2023-02-15T03:39:45;102762.39;;;1.85;77.21
77086;BME280;66014;53.134;18.006;2023-02-15T03:42:29;102761.30;;;1.86;77.38
77086;BME280;66014;53.134;18.006;2023-02-15T03:45:01;102763.30;;;1.84;77.54
77086;BME280;66014;53.134;18.006;2023-02-15T03:47:33;102760.92;;;1.83;77.64
77086;BME280;66014;53.134;18.006;2023-02-15T03:50:12;102759.52;;;1.79;77.66
77086;BME280;66014;53.134;18.006;2023-02-15T03:53:02;102756.43;;;1.78;77.91
77086;BME280;66014;53.134;18.006;2023-02-15T03:55:31;102750.27;;;1.78;77.79
77086;BME280;66014;53.134;18.006;2023-02-15T03:58:08;102752.63;;;1.81;77.99
77086;BME280;66014;53.134;18.006;2023-02-15T04:00:58;102753.71;;;1.83;77.91
77086;BME280;66014;53.134;18.006;2023-02-15T04:03:50;102748.80;;;1.84;77.75
77086;BME280;66014;53.134;18.006;2023-02-15T04:06:19;102749.96;;;1.85;77.72
77086;BME280;66014;53.134;18.006;2023-02-15T04:08:59;102752.54;;;1.86;77.80
77086;BME280;66014;53.134;18.006;2023-02-15T04:11:44;102753.89;;;1.87;77.99
77086;BME280;66014;53.134;18.006;2023-02-15T04:14:11;102754.00;;;1.88;78.20
77086;BME280;66014;53.134;18.006;2023-02-15T04:16:57;102750.30;;;1.93;77.96
77086;BME280;66014;53.134;18.006;2023-02-15T04:19:23;102751.10;;;1.98;77.98
77086;BME280;66014;53.134;18.006;2023-02-15T04:22:32;102749.11;;;1.99;77.86
77086;BME280;66014;53.134;18.006;2023-02-15T04:25:16;102747.93;;;2.02;78.05
77086;BME280;66014;53.134;18.006;2023-02-15T04:27:47;102750.84;;;2.03;77.93
77086;BME280;66014;53.134;18.006;2023-02-15T04:30:16;102749.84;;;2.06;77.66
77086;BME280;66014;53.134;18.006;2023-02-15T04:32:44;102749.08;;;2.07;77.96
77086;BME280;66014;53.134;18.006;2023-02-15T04:35:15;102745.64;;;2.09;77.64
77086;BME280;66014;53.134;18.006;2023-02-15T04:37:47;102749.16;;;2.13;77.77
77086;BME280;66014;53.134;18.006;2023-02-15T04:40:16;102745.95;;;2.17;77.69
77086;BME280;66014;53.134;18.006;2023-02-15T04:42:43;102748.35;;;2.19;77.71
77086;BME280;66014;53.134;18.006;2023-02-15T04:45:10;102742.70;;;2.20;77.40
77086;BME280;66014;53.134;18.006;2023-02-15T04:47:44;102743.63;;;2.18;77.54
77086;BME280;66014;53.134;18.006;2023-02-15T04:50:11;102739.55;;;2.16;77.55
77086;BME280;66014;53.134;18.006;2023-02-15T04:52:38;102735.33;;;2.16;77.44
77086;BME280;66014;53.134;18.006;2023-02-15T04:55:06;102727.90;;;2.14;77.50
77086;BME280;66014;53.134;18.006;2023-02-15T04:57:36;102729.59;;;2.12;77.31
77086;BME280;66014;53.134;18.006;2023-02-15T05:00:03;102730.29;;;2.08;77.38
77086;BME280;66014;53.134;18.006;2023-02-15T05:02:30;102732.88;;;2.05;77.54
77086;BME280;66014;53.134;18.006;2023-02-15T05:04:57;102728.98;;;2.03;77.34
77086;BME280;66014;53.134;18.006;2023-02-15T05:07:26;102729.44;;;2.04;77.58
77086;BME280;66014;53.134;18.006;2023-02-15T05:09:53;102727.86;;;2.08;77.52
77086;BME280;66014;53.134;18.006;2023-02-15T05:12:19;102730.50;;;2.07;77.31
77086;BME280;66014;53.134;18.006;2023-02-15T05:14:46;102727.63;;;2.06;77.37
77086;BME280;66014;53.134;18.006;2023-02-15T05:17:12;102730.36;;;2.03;77.15
77086;BME280;66014;53.134;18.006;2023-02-15T05:19:39;102730.05;;;1.99;77.44
77086;BME280;66014;53.134;18.006;2023-02-15T05:22:06;102733.53;;;1.95;77.37
77086;BME280;66014;53.134;18.006;2023-02-15T05:24:32;102731.85;;;1.94;77.46
77086;BME280;66014;53.134;18.006;2023-02-15T05:27:17;102735.27;;;1.96;77.48
77086;BME280;66014;53.134;18.006;2023-02-15T05:30:03;102732.66;;;1.95;77.44
77086;BME280;66014;53.134;18.006;2023-02-15T05:32:29;102733.29;;;1.93;77.22
77086;BME280;66014;53.134;18.006;2023-02-15T05:34:56;102735.33;;;1.91;77.46
77086;BME280;66014;53.134;18.006;2023-02-15T05:37:22;102736.89;;;1.88;77.44
77086;BME280;66014;53.134;18.006;2023-02-15T05:39:49;102737.35;;;1.85;77.34
77086;BME280;66014;53.134;18.006;2023-02-15T05:42:16;102733.50;;;1.81;77.56
77086;BME280;66014;53.134;18.006;2023-02-15T05:44:42;102733.78;;;1.79;77.59
77086;BME280;66014;53.134;18.006;2023-02-15T05:47:09;102729.62;;;1.78;77.52
77086;BME280;66014;53.134;18.006;2023-02-15T05:49:36;102730.02;;;1.78;77.56
77086;BME280;66014;53.134;18.006;2023-02-15T05:52:03;102726.62;;;1.79;77.44
77086;BME280;66014;53.134;18.006;2023-02-15T05:54:29;102728.44;;;1.81;77.63
77086;BME280;66014;53.134;18.006;2023-02-15T05:56:56;102726.42;;;1.83;77.66
77086;BME280;66014;53.134;18.006;2023-02-15T05:59:22;102726.47;;;1.86;77.64
77086;BME280;66014;53.134;18.006;2023-02-15T06:01:49;102727.48;;;1.90;77.47
77086;BME280;66014;53.134;18.006;2023-02-15T06:04:15;102724.64;;;1.95;77.45
77086;BME280;66014;53.134;18.006;2023-02-15T06:06:42;102725.29;;;1.99;77.66
77086;BME280;66014;53.134;18.006;2023-02-15T06:09:10;102723.47;;;2.05;77.45
77086;BME280;66014;53.134;18.006;2023-02-15T06:11:44;102725.28;;;2.10;77.26
77086;BME280;66014;53.134;18.006;2023-02-15T06:14:11;102722.72;;;2.13;77.25
77086;BME280;66014;53.134;18.006;2023-02-15T06:16:38;102725.16;;;2.13;77.15
77086;BME280;66014;53.134;18.006;2023-02-15T06:19:04;102723.67;;;2.11;77.24
77086;BME280;66014;53.134;18.006;2023-02-15T06:21:31;102724.05;;;2.10;77.41
77086;BME280;66014;53.134;18.006;2023-02-15T06:23:57;102726.14;;;2.11;77.35
77086;BME280;66014;53.134;18.006;2023-02-15T06:26:24;102726.57;;;2.09;77.44
77086;BME280;66014;53.134;18.006;2023-02-15T06:28:51;102726.91;;;2.09;77.57
77086;BME280;66014;53.134;18.006;2023-02-15T06:31:18;102725.02;;;2.12;77.42
77086;BME280;66014;53.134;18.006;2023-02-15T06:33:45;102722.86;;;2.14;77.47
77086;BME280;66014;53.134;18.006;2023-02-15T06:36:11;102719.00;;;2.14;77.26
77086;BME280;66014;53.134;18.006;2023-02-15T06:38:39;102719.13;;;2.15;77.43
77086;BME280;66014;53.134;18.006;2023-02-15T06:41:06;102719.39;;;2.17;77.64
77086;BME280;66014;53.134;18.006;2023-02-15T06:43:36;102716.46;;;2.22;77.51
77086;BME280;66014;53.134;18.006;2023-02-15T06:46:02;102718.73;;;2.26;77.45
77086;BME280;66014;53.134;18.006;2023-02-15T06:48:32;102715.48;;;2.28;77.42
77086;BME280;66014;53.134;18.006;2023-02-15T06:50:59;102715.05;;;2.30;77.56
77086;BME280;66014;53.134;18.006;2023-02-15T06:53:25;102712.11;;;2.29;77.49
77086;BME280;66014;53.134;18.006;2023-02-15T06:56:02;102712.15;;;2.28;77.52
77086;BME280;66014;53.134;18.006;2023-02-15T06:58:33;102710.80;;;2.27;77.61
77086;BME280;66014;53.134;18.006;2023-02-15T07:01:06;102708.34;;;2.27;77.54
77086;BME280;66014;53.134;18.006;2023-02-15T07:07:28;102704.48;;;2.31;77.63
77086;BME280;66014;53.134;18.006;2023-02-15T07:09:54;102698.16;;;2.31;77.45
77086;BME280;66014;53.134;18.006;2023-02-15T07:12:49;102695.80;;;2.33;77.49
77086;BME280;66014;53.134;18.006;2023-02-15T07:15:38;102693.16;;;2.33;77.64
77086;BME280;66014;53.134;18.006;2023-02-15T07:18:07;102694.48;;;2.35;77.57
77086;BME280;66014;53.134;18.006;2023-02-15T07:20:35;102691.00;;;2.38;77.60
77086;BME280;66014;53.134;18.006;2023-02-15T07:23:30;102687.75;;;2.40;77.39
77086;BME280;66014;53.134;18.006;2023-02-15T07:26:18;102688.38;;;2.41;77.78
77086;BME280;66014;53.134;18.006;2023-02-15T07:35:49;102691.16;;;2.48;77.45
77086;BME280;66014;53.134;18.006;2023-02-15T07:38:44;102690.67;;;2.51;77.40
77086;BME280;66014;53.134;18.006;2023-02-15T07:41:28;102689.64;;;2.58;77.43
77086;BME280;66014;53.134;18.006;2023-02-15T07:48:28;102682.50;;;2.71;77.32
77086;BME280;66014;53.134;18.006;2023-02-15T07:51:38;102678.90;;;2.79;77.21
77086;BME280;66014;53.134;18.006;2023-02-15T07:54:04;102676.38;;;2.84;77.20
77086;BME280;66014;53.134;18.006;2023-02-15T07:56:31;102673.80;;;2.89;76.92
77086;BME280;66014;53.134;18.006;2023-02-15T07:58:59;102673.02;;;2.97;76.89
77086;BME280;66014;53.134;18.006;2023-02-15T08:01:43;102670.52;;;3.08;76.72
77086;BME280;66014;53.134;18.006;2023-02-15T08:04:12;102669.91;;;3.19;76.43
77086;BME280;66014;53.134;18.006;2023-02-15T08:13:49;102647.02;;;3.47;75.99
77086;BME280;66014;53.134;18.006;2023-02-15T08:16:59;102643.95;;;3.61;75.65
77086;BME280;66014;53.134;18.006;2023-02-15T08:19:30;102643.45;;;3.66;75.54
77086;BME280;66014;53.134;18.006;2023-02-15T08:21:59;102638.54;;;3.73;75.25
77086;BME280;66014;53.134;18.006;2023-02-15T08:24:29;102634.02;;;3.78;75.23
77086;BME280;66014;53.134;18.006;2023-02-15T08:27:11;102626.45;;;3.84;74.92
77086;BME280;66014;53.134;18.006;2023-02-15T08:30:02;102626.13;;;3.90;74.79
77086;BME280;66014;53.134;18.006;2023-02-15T08:32:32;102626.79;;;3.99;74.88
77086;BME280;66014;53.134;18.006;2023-02-15T08:35:02;102627.92;;;4.10;74.60
77086;BME280;66014;53.134;18.006;2023-02-15T08:37:28;102628.42;;;4.20;74.56
77086;BME280;66014;53.134;18.006;2023-02-15T08:39:55;102622.85;;;4.28;74.39
77086;BME280;66014;53.134;18.006;2023-02-15T08:42:49;102623.91;;;4.31;74.14
77086;BME280;66014;53.134;18.006;2023-02-15T08:45:19;102625.88;;;4.33;73.97
77086;BME280;66014;53.134;18.006;2023-02-15T08:47:45;102622.33;;;4.34;73.82
77086;BME280;66014;53.134;18.006;2023-02-15T08:50:40;102614.48;;;4.33;73.68
77086;BME280;66014;53.134;18.006;2023-02-15T08:53:53;102614.38;;;4.34;73.73
77086;BME280;66014;53.134;18.006;2023-02-15T08:56:23;102610.15;;;4.34;73.55
77086;BME280;66014;53.134;18.006;2023-02-15T08:58:50;102603.53;;;4.36;73.70
77086;BME280;66014;53.134;18.006;2023-02-15T09:01:20;102604.23;;;4.39;73.60
77086;BME280;66014;53.134;18.006;2023-02-15T09:03:49;102599.67;;;4.39;73.50
77086;BME280;66014;53.134;18.006;2023-02-15T09:06:16;102599.64;;;4.43;73.56
77086;BME280;66014;53.134;18.006;2023-02-15T09:08:43;102596.34;;;4.48;73.50
77086;BME280;66014;53.134;18.006;2023-02-15T09:11:13;102597.13;;;4.52;73.50
77086;BME280;66014;53.134;18.006;2023-02-15T09:13:40;102598.91;;;4.58;73.22
77086;BME280;66014;53.134;18.006;2023-02-15T09:16:08;102597.87;;;4.60;73.26
77086;BME280;66014;53.134;18.006;2023-02-15T09:18:39;102596.06;;;4.61;72.61
77086;BME280;66014;53.134;18.006;2023-02-15T09:21:09;102590.54;;;4.60;72.68
77086;BME280;66014;53.134;18.006;2023-02-15T09:23:36;102591.59;;;4.60;72.82
77086;BME280;66014;53.134;18.006;2023-02-15T09:26:26;102594.80;;;4.55;72.24
77086;BME280;66014;53.134;18.006;2023-02-15T09:28:56;102599.66;;;4.51;72.55
77086;BME280;66014;53.134;18.006;2023-02-15T09:31:26;102597.52;;;4.52;72.71
77086;BME280;66014;53.134;18.006;2023-02-15T09:33:53;102595.14;;;4.56;72.75
77086;BME280;66014;53.134;18.006;2023-02-15T09:36:26;102597.45;;;4.59;72.33
77086;BME280;66014;53.134;18.006;2023-02-15T09:39:01;102596.95;;;4.58;72.61
77086;BME280;66014;53.134;18.006;2023-02-15T09:47:11;102592.70;;;4.67;71.23
77086;BME280;66014;53.134;18.006;2023-02-15T09:49:52;102586.94;;;4.67;71.14
77086;BME280;66014;53.134;18.006;2023-02-15T09:55:08;102579.42;;;4.66;70.58
77086;BME280;66014;53.134;18.006;2023-02-15T09:57:50;102575.10;;;4.62;70.43
77086;BME280;66014;53.134;18.006;2023-02-15T10:00:41;102572.13;;;4.56;70.46
77086;BME280;66014;53.134;18.006;2023-02-15T10:11:43;102565.25;;;4.53;71.28
77086;BME280;66014;53.134;18.006;2023-02-15T10:15:05;102561.15;;;4.57;71.40
77086;BME280;66014;53.134;18.006;2023-02-15T10:20:17;102558.98;;;4.58;70.37
77086;BME280;66014;53.134;18.006;2023-02-15T10:25:41;102558.43;;;4.56;69.86
77086;BME280;66014;53.134;18.006;2023-02-15T10:28:19;102554.02;;;4.50;70.17
77086;BME280;66014;53.134;18.006;2023-02-15T10:30:50;102551.89;;;4.47;70.14
77086;BME280;66014;53.134;18.006;2023-02-15T10:42:08;102546.42;;;4.47;70.04
77086;BME280;66014;53.134;18.006;2023-02-15T10:53:28;102538.41;;;4.38;70.25
77086;BME280;66014;53.134;18.006;2023-02-15T10:59:04;102541.17;;;4.30;70.35
77086;BME280;66014;53.134;18.006;2023-02-15T11:06:57;102528.28;;;4.51;70.37
77086;BME280;66014;53.134;18.006;2023-02-15T11:09:49;102521.70;;;4.58;69.85
77086;BME280;66014;53.134;18.006;2023-02-15T11:12:23;102523.87;;;4.66;69.51
77086;BME280;66014;53.134;18.006;2023-02-15T11:18:03;102512.74;;;4.77;69.63
77086;BME280;66014;53.134;18.006;2023-02-15T11:21:09;102511.98;;;4.78;69.38
77086;BME280;66014;53.134;18.006;2023-02-15T11:23:53;102507.72;;;4.74;69.16
77086;BME280;66014;53.134;18.006;2023-02-15T11:26:34;102498.41;;;4.68;69.51
77086;BME280;66014;53.134;18.006;2023-02-15T11:32:25;102492.70;;;4.69;70.13
